aviador You're here:

LEVC Decoded Metar

VALENCIA in SPAIN
Report Time2016-12-08 15:30:00
UTC Time2016-12-08 16:04:52
Flight Rules vfr VFR
Wind090° at 09 kt
W.Decomp.*RWY 12: 7.9 kt HW 4.4 kt LCW
W.Rank090° ranks 9
Current wind is above 090° avg. (7.2)
Visibility9999 m
Phenomena:N/A
Clouds:Few 036 Hf
Expected CloudBase > 2,000 ft AGL from Temp-Dew spread
CeilingNone
Temp16°C (ISA +1)
Dew Point11°C (72% RH)
AAT13.1°C
QNH1033 hPa
Density Alt-125 ft
Elevation203 ft
Report Wrong Elevation
Raw Report
LEVC 081530Z 09009KT 9999 FEW036 16/11 Q1033 NOSIG=

Extra information for LEVC:More info

Metar Taf Metar & Taf Last 4 Metars F.Rules Stats Wind Profile Meteogram Temp Stats Airport Information Weather charts Add Link Nearby VenuesMetar ALERT Operation Metar Decoded Social comments

Webcam Valencia